sensor_id;sensor_type;location;lat;lon;timestamp;P1;durP1;ratioP1;P2;durP2;ratioP2
64714;SDS011;51144;53.002;6.506;2022-09-09T00:02:01;14.43;;;10.40;;
64714;SDS011;51144;53.002;6.506;2022-09-09T00:04:43;14.05;;;10.70;;
64714;SDS011;51144;53.002;6.506;2022-09-09T00:07:34;13.82;;;9.50;;
64714;SDS011;51144;53.002;6.506;2022-09-09T00:15:36;12.20;;;9.57;;
64714;SDS011;51144;53.002;6.506;2022-09-09T00:18:07;13.02;;;9.13;;
64714;SDS011;51144;53.002;6.506;2022-09-09T00:20:51;11.48;;;9.77;;
64714;SDS011;51144;53.002;6.506;2022-09-09T00:23:25;13.43;;;10.85;;
64714;SDS011;51144;53.002;6.506;2022-09-09T00:29:03;14.13;;;9.38;;
64714;SDS011;51144;53.002;6.506;2022-09-09T00:31:39;16.05;;;9.40;;
64714;SDS011;51144;53.002;6.506;2022-09-09T00:34:12;12.77;;;9.70;;
64714;SDS011;51144;53.002;6.506;2022-09-09T00:36:38;11.73;;;9.00;;
64714;SDS011;51144;53.002;6.506;2022-09-09T00:39:08;10.90;;;9.65;;
64714;SDS011;51144;53.002;6.506;2022-09-09T00:42:00;14.55;;;9.57;;
64714;SDS011;51144;53.002;6.506;2022-09-09T00:44:52;13.57;;;9.73;;
64714;SDS011;51144;53.002;6.506;2022-09-09T00:50:05;17.33;;;9.38;;
64714;SDS011;51144;53.002;6.506;2022-09-09T00:55:54;13.80;;;10.30;;
64714;SDS011;51144;53.002;6.506;2022-09-09T00:58:41;11.82;;;10.05;;
64714;SDS011;51144;53.002;6.506;2022-09-09T01:01:11;13.57;;;11.25;;
64714;SDS011;51144;53.002;6.506;2022-09-09T01:03:39;15.38;;;10.60;;
64714;SDS011;51144;53.002;6.506;2022-09-09T01:06:22;13.73;;;10.82;;
64714;SDS011;51144;53.002;6.506;2022-09-09T01:17:01;14.57;;;10.25;;
64714;SDS011;51144;53.002;6.506;2022-09-09T01:20:03;12.90;;;9.77;;
64714;SDS011;51144;53.002;6.506;2022-09-09T01:28:09;15.63;;;10.55;;
64714;SDS011;51144;53.002;6.506;2022-09-09T01:30:38;14.25;;;11.15;;
64714;SDS011;51144;53.002;6.506;2022-09-09T01:33:07;13.77;;;9.48;;
64714;SDS011;51144;53.002;6.506;2022-09-09T01:38:41;15.13;;;9.25;;
64714;SDS011;51144;53.002;6.506;2022-09-09T01:41:07;13.02;;;9.65;;
64714;SDS011;51144;53.002;6.506;2022-09-09T01:43:32;15.05;;;9.80;;
64714;SDS011;51144;53.002;6.506;2022-09-09T01:45:58;16.17;;;9.75;;
64714;SDS011;51144;53.002;6.506;2022-09-09T01:48:25;15.73;;;10.52;;
64714;SDS011;51144;53.002;6.506;2022-09-09T01:50:52;10.52;;;9.02;;
64714;SDS011;51144;53.002;6.506;2022-09-09T01:53:18;15.18;;;9.52;;
64714;SDS011;51144;53.002;6.506;2022-09-09T01:55:58;13.25;;;8.98;;
64714;SDS011;51144;53.002;6.506;2022-09-09T02:04:20;11.15;;;8.25;;
64714;SDS011;51144;53.002;6.506;2022-09-09T02:06:59;13.18;;;8.85;;
64714;SDS011;51144;53.002;6.506;2022-09-09T02:09:25;11.73;;;8.68;;
64714;SDS011;51144;53.002;6.506;2022-09-09T02:11:54;10.32;;;8.68;;
64714;SDS011;51144;53.002;6.506;2022-09-09T02:14:39;17.95;;;9.02;;
64714;SDS011;51144;53.002;6.506;2022-09-09T02:17:11;11.80;;;8.18;;
64714;SDS011;51144;53.002;6.506;2022-09-09T02:19:48;12.32;;;8.40;;
64714;SDS011;51144;53.002;6.506;2022-09-09T02:22:18;13.40;;;7.85;;
64714;SDS011;51144;53.002;6.506;2022-09-09T02:24:47;15.93;;;8.52;;
64714;SDS011;51144;53.002;6.506;2022-09-09T02:27:15;13.85;;;9.18;;
64714;SDS011;51144;53.002;6.506;2022-09-09T02:29:43;14.18;;;7.50;;
64714;SDS011;51144;53.002;6.506;2022-09-09T02:32:13;14.00;;;8.27;;
64714;SDS011;51144;53.002;6.506;2022-09-09T02:34:43;14.10;;;7.50;;
64714;SDS011;51144;53.002;6.506;2022-09-09T02:37:10;12.50;;;7.22;;
64714;SDS011;51144;53.002;6.506;2022-09-09T02:39:38;9.88;;;7.50;;
64714;SDS011;51144;53.002;6.506;2022-09-09T02:42:04;10.98;;;7.07;;
64714;SDS011;51144;53.002;6.506;2022-09-09T02:44:30;8.30;;;7.25;;
64714;SDS011;51144;53.002;6.506;2022-09-09T02:49:55;10.95;;;6.80;;
64714;SDS011;51144;53.002;6.506;2022-09-09T02:52:33;11.75;;;6.90;;
64714;SDS011;51144;53.002;6.506;2022-09-09T02:55:34;12.27;;;6.18;;
64714;SDS011;51144;53.002;6.506;2022-09-09T02:58:01;9.38;;;6.20;;
64714;SDS011;51144;53.002;6.506;2022-09-09T03:00:31;11.50;;;6.68;;
64714;SDS011;51144;53.002;6.506;2022-09-09T03:02:57;10.70;;;6.10;;
64714;SDS011;51144;53.002;6.506;2022-09-09T03:05:23;17.70;;;6.88;;
64714;SDS011;51144;53.002;6.506;2022-09-09T03:07:49;29.10;;;6.72;;
64714;SDS011;51144;53.002;6.506;2022-09-09T03:10:15;12.38;;;5.55;;
64714;SDS011;51144;53.002;6.506;2022-09-09T03:12:42;12.32;;;5.95;;
64714;SDS011;51144;53.002;6.506;2022-09-09T03:15:08;15.18;;;7.20;;
64714;SDS011;51144;53.002;6.506;2022-09-09T03:17:34;12.02;;;6.30;;
64714;SDS011;51144;53.002;6.506;2022-09-09T03:20:02;11.40;;;6.25;;
64714;SDS011;51144;53.002;6.506;2022-09-09T03:22:28;13.15;;;6.05;;
64714;SDS011;51144;53.002;6.506;2022-09-09T03:24:53;10.82;;;5.63;;
64714;SDS011;51144;53.002;6.506;2022-09-09T03:27:19;14.88;;;6.82;;
64714;SDS011;51144;53.002;6.506;2022-09-09T03:29:45;13.02;;;6.40;;
64714;SDS011;51144;53.002;6.506;2022-09-09T03:32:11;14.70;;;6.05;;
64714;SDS011;51144;53.002;6.506;2022-09-09T03:34:38;12.40;;;5.80;;
64714;SDS011;51144;53.002;6.506;2022-09-09T03:37:06;10.68;;;5.57;;
64714;SDS011;51144;53.002;6.506;2022-09-09T03:39:32;10.43;;;5.40;;
64714;SDS011;51144;53.002;6.506;2022-09-09T03:41:57;11.48;;;5.80;;
64714;SDS011;51144;53.002;6.506;2022-09-09T03:44:23;13.93;;;6.00;;
64714;SDS011;51144;53.002;6.506;2022-09-09T03:46:48;10.20;;;5.70;;
64714;SDS011;51144;53.002;6.506;2022-09-09T03:49:14;12.73;;;5.47;;
64714;SDS011;51144;53.002;6.506;2022-09-09T03:51:40;7.53;;;4.38;;
64714;SDS011;51144;53.002;6.506;2022-09-09T03:54:07;5.53;;;4.82;;
64714;SDS011;51144;53.002;6.506;2022-09-09T03:56:35;13.52;;;5.55;;
64714;SDS011;51144;53.002;6.506;2022-09-09T03:59:01;8.90;;;5.15;;
64714;SDS011;51144;53.002;6.506;2022-09-09T04:01:27;8.57;;;5.82;;
64714;SDS011;51144;53.002;6.506;2022-09-09T04:03:53;13.65;;;6.25;;
64714;SDS011;51144;53.002;6.506;2022-09-09T04:06:20;10.07;;;5.57;;
64714;SDS011;51144;53.002;6.506;2022-09-09T04:08:46;10.13;;;5.50;;
64714;SDS011;51144;53.002;6.506;2022-09-09T04:11:14;13.45;;;6.38;;
64714;SDS011;51144;53.002;6.506;2022-09-09T04:13:41;10.55;;;6.43;;
64714;SDS011;51144;53.002;6.506;2022-09-09T04:16:07;10.38;;;6.95;;
64714;SDS011;51144;53.002;6.506;2022-09-09T04:18:35;10.15;;;6.10;;
64714;SDS011;51144;53.002;6.506;2022-09-09T04:21:01;9.02;;;6.07;;
64714;SDS011;51144;53.002;6.506;2022-09-09T04:23:28;10.48;;;6.80;;
64714;SDS011;51144;53.002;6.506;2022-09-09T04:25:54;11.93;;;6.55;;
64714;SDS011;51144;53.002;6.506;2022-09-09T04:28:22;10.38;;;7.53;;
64714;SDS011;51144;53.002;6.506;2022-09-09T04:30:49;14.55;;;7.47;;
64714;SDS011;51144;53.002;6.506;2022-09-09T04:33:16;12.23;;;7.93;;
64714;SDS011;51144;53.002;6.506;2022-09-09T04:35:46;11.45;;;7.57;;
64714;SDS011;51144;53.002;6.506;2022-09-09T04:38:14;18.80;;;8.43;;
64714;SDS011;51144;53.002;6.506;2022-09-09T04:40:43;12.20;;;9.27;;
64714;SDS011;51144;53.002;6.506;2022-09-09T04:43:11;13.52;;;9.38;;
64714;SDS011;51144;53.002;6.506;2022-09-09T04:45:39;15.20;;;9.38;;
64714;SDS011;51144;53.002;6.506;2022-09-09T04:48:05;13.43;;;9.38;;
64714;SDS011;51144;53.002;6.506;2022-09-09T04:50:31;16.45;;;9.70;;
64714;SDS011;51144;53.002;6.506;2022-09-09T04:52:59;15.65;;;10.93;;
64714;SDS011;51144;53.002;6.506;2022-09-09T04:55:26;15.15;;;9.43;;
64714;SDS011;51144;53.002;6.506;2022-09-09T04:57:52;13.52;;;9.80;;
64714;SDS011;51144;53.002;6.506;2022-09-09T05:00:17;17.05;;;10.98;;
64714;SDS011;51144;53.002;6.506;2022-09-09T05:02:43;17.38;;;10.55;;
64714;SDS011;51144;53.002;6.506;2022-09-09T05:05:09;18.77;;;11.60;;
64714;SDS011;51144;53.002;6.506;2022-09-09T05:07:36;17.40;;;11.63;;
64714;SDS011;51144;53.002;6.506;2022-09-09T05:10:02;16.67;;;11.70;;
64714;SDS011;51144;53.002;6.506;2022-09-09T05:12:30;22.63;;;12.15;;
64714;SDS011;51144;53.002;6.506;2022-09-09T05:14:56;26.85;;;13.15;;
64714;SDS011;51144;53.002;6.506;2022-09-09T05:17:22;23.27;;;13.43;;
64714;SDS011;51144;53.002;6.506;2022-09-09T05:19:48;23.15;;;13.60;;
64714;SDS011;51144;53.002;6.506;2022-09-09T05:22:17;21.20;;;12.70;;
64714;SDS011;51144;53.002;6.506;2022-09-09T05:24:48;19.98;;;12.88;;
64714;SDS011;51144;53.002;6.506;2022-09-09T05:27:16;20.25;;;13.15;;
64714;SDS011;51144;53.002;6.506;2022-09-09T05:29:45;23.20;;;13.00;;
64714;SDS011;51144;53.002;6.506;2022-09-09T05:32:11;24.55;;;13.95;;
64714;SDS011;51144;53.002;6.506;2022-09-09T05:34:38;24.83;;;14.73;;
64714;SDS011;51144;53.002;6.506;2022-09-09T05:37:04;23.38;;;14.27;;
64714;SDS011;51144;53.002;6.506;2022-09-09T05:39:30;20.30;;;12.55;;
64714;SDS011;51144;53.002;6.506;2022-09-09T05:41:55;20.58;;;12.35;;
64714;SDS011;51144;53.002;6.506;2022-09-09T05:44:21;19.58;;;12.43;;
64714;SDS011;51144;53.002;6.506;2022-09-09T05:46:49;20.13;;;12.25;;
64714;SDS011;51144;53.002;6.506;2022-09-09T05:49:15;21.13;;;14.70;;
64714;SDS011;51144;53.002;6.506;2022-09-09T05:51:41;15.60;;;10.63;;
64714;SDS011;51144;53.002;6.506;2022-09-09T05:54:08;13.95;;;10.68;;
64714;SDS011;51144;53.002;6.506;2022-09-09T05:56:34;17.15;;;11.50;;
64714;SDS011;51144;53.002;6.506;2022-09-09T05:58:59;19.38;;;11.77;;
64714;SDS011;51144;53.002;6.506;2022-09-09T06:01:27;15.77;;;10.70;;
64714;SDS011;51144;53.002;6.506;2022-09-09T06:03:55;12.73;;;10.40;;
64714;SDS011;51144;53.002;6.506;2022-09-09T06:06:30;22.52;;;10.80;;
64714;SDS011;51144;53.002;6.506;2022-09-09T06:08:57;12.55;;;9.77;;
64714;SDS011;51144;53.002;6.506;2022-09-09T06:11:24;13.30;;;9.82;;
64714;SDS011;51144;53.002;6.506;2022-09-09T06:13:51;14.70;;;9.70;;
64714;SDS011;51144;53.002;6.506;2022-09-09T06:16:20;16.45;;;10.25;;
64714;SDS011;51144;53.002;6.506;2022-09-09T06:18:48;14.15;;;9.82;;
64714;SDS011;51144;53.002;6.506;2022-09-09T06:21:18;13.63;;;10.27;;
64714;SDS011;51144;53.002;6.506;2022-09-09T06:23:45;15.50;;;10.88;;
64714;SDS011;51144;53.002;6.506;2022-09-09T06:28:43;14.02;;;10.05;;
64714;SDS011;51144;53.002;6.506;2022-09-09T06:31:11;15.65;;;10.13;;
64714;SDS011;51144;53.002;6.506;2022-09-09T06:33:39;15.23;;;9.90;;
64714;SDS011;51144;53.002;6.506;2022-09-09T06:38:48;13.68;;;11.10;;
64714;SDS011;51144;53.002;6.506;2022-09-09T06:41:15;13.55;;;9.85;;
64714;SDS011;51144;53.002;6.506;2022-09-09T06:43:43;12.32;;;9.65;;
64714;SDS011;51144;53.002;6.506;2022-09-09T06:46:13;10.82;;;9.00;;
64714;SDS011;51144;53.002;6.506;2022-09-09T06:48:41;12.13;;;9.63;;
64714;SDS011;51144;53.002;6.506;2022-09-09T06:53:36;11.40;;;8.55;;
64714;SDS011;51144;53.002;6.506;2022-09-09T06:56:17;14.23;;;9.45;;
64714;SDS011;51144;53.002;6.506;2022-09-09T06:58:48;13.05;;;9.23;;
64714;SDS011;51144;53.002;6.506;2022-09-09T07:01:18;13.35;;;8.75;;
64714;SDS011;51144;53.002;6.506;2022-09-09T07:03:47;13.23;;;9.27;;
64714;SDS011;51144;53.002;6.506;2022-09-09T07:06:18;14.40;;;9.35;;
64714;SDS011;51144;53.002;6.506;2022-09-09T07:08:52;10.68;;;8.75;;
64714;SDS011;51144;53.002;6.506;2022-09-09T07:11:29;11.45;;;8.35;;
64714;SDS011;51144;53.002;6.506;2022-09-09T07:13:57;12.23;;;8.80;;
64714;SDS011;51144;53.002;6.506;2022-09-09T07:16:24;8.90;;;7.97;;
64714;SDS011;51144;53.002;6.506;2022-09-09T07:18:53;8.27;;;7.28;;
64714;SDS011;51144;53.002;6.506;2022-09-09T07:21:23;8.85;;;7.97;;
64714;SDS011;51144;53.002;6.506;2022-09-09T07:23:51;11.73;;;8.90;;
64714;SDS011;51144;53.002;6.506;2022-09-09T07:26:17;10.23;;;7.93;;
64714;SDS011;51144;53.002;6.506;2022-09-09T07:28:46;13.05;;;7.90;;
64714;SDS011;51144;53.002;6.506;2022-09-09T07:31:15;12.32;;;7.68;;
64714;SDS011;51144;53.002;6.506;2022-09-09T07:36:13;8.95;;;6.88;;
64714;SDS011;51144;53.002;6.506;2022-09-09T07:38:40;12.88;;;7.40;;
64714;SDS011;51144;53.002;6.506;2022-09-09T07:41:11;9.40;;;7.00;;
64714;SDS011;51144;53.002;6.506;2022-09-09T07:43:39;10.80;;;6.80;;
64714;SDS011;51144;53.002;6.506;2022-09-09T07:46:06;13.88;;;6.13;;
64714;SDS011;51144;53.002;6.506;2022-09-09T07:48:32;6.15;;;5.03;;
64714;SDS011;51144;53.002;6.506;2022-09-09T07:51:06;9.30;;;4.38;;
64714;SDS011;51144;53.002;6.506;2022-09-09T07:53:33;9.10;;;5.05;;
64714;SDS011;51144;53.002;6.506;2022-09-09T07:56:08;6.93;;;5.55;;
64714;SDS011;51144;53.002;6.506;2022-09-09T07:58:36;5.85;;;4.38;;
64714;SDS011;51144;53.002;6.506;2022-09-09T08:01:13;8.82;;;4.57;;
64714;SDS011;51144;53.002;6.506;2022-09-09T08:03:43;7.13;;;4.15;;
64714;SDS011;51144;53.002;6.506;2022-09-09T08:06:09;5.53;;;4.10;;
64714;SDS011;51144;53.002;6.506;2022-09-09T08:08:37;10.27;;;4.25;;
64714;SDS011;51144;53.002;6.506;2022-09-09T08:11:04;13.93;;;4.45;;
64714;SDS011;51144;53.002;6.506;2022-09-09T08:13:33;7.80;;;4.10;;
64714;SDS011;51144;53.002;6.506;2022-09-09T08:16:10;5.72;;;4.63;;
64714;SDS011;51144;53.002;6.506;2022-09-09T08:18:38;4.80;;;4.18;;
64714;SDS011;51144;53.002;6.506;2022-09-09T08:21:05;7.15;;;4.32;;
64714;SDS011;51144;53.002;6.506;2022-09-09T08:23:32;9.90;;;5.00;;
64714;SDS011;51144;53.002;6.506;2022-09-09T08:26:05;8.60;;;5.20;;
64714;SDS011;51144;53.002;6.506;2022-09-09T08:28:34;5.63;;;4.22;;
64714;SDS011;51144;53.002;6.506;2022-09-09T08:31:13;8.52;;;3.97;;
64714;SDS011;51144;53.002;6.506;2022-09-09T08:33:41;5.40;;;3.80;;
64714;SDS011;51144;53.002;6.506;2022-09-09T08:36:11;7.57;;;3.63;;
64714;SDS011;51144;53.002;6.506;2022-09-09T08:38:40;8.13;;;3.53;;
64714;SDS011;51144;53.002;6.506;2022-09-09T08:49:47;8.57;;;2.53;;
64714;SDS011;51144;53.002;6.506;2022-09-09T08:52:28;5.60;;;2.95;;
64714;SDS011;51144;53.002;6.506;2022-09-09T08:55:05;8.75;;;3.28;;
64714;SDS011;51144;53.002;6.506;2022-09-09T08:57:55;7.95;;;2.33;;
64714;SDS011;51144;53.002;6.506;2022-09-09T09:00:22;6.38;;;2.17;;
64714;SDS011;51144;53.002;6.506;2022-09-09T09:03:14;10.98;;;3.63;;
64714;SDS011;51144;53.002;6.506;2022-09-09T09:06:04;8.05;;;2.67;;
64714;SDS011;51144;53.002;6.506;2022-09-09T09:09:06;6.72;;;2.22;;
64714;SDS011;51144;53.002;6.506;2022-09-09T09:11:47;10.60;;;3.53;;
64714;SDS011;51144;53.002;6.506;2022-09-09T09:14:21;8.52;;;2.50;;
64714;SDS011;51144;53.002;6.506;2022-09-09T09:17:02;4.57;;;1.80;;
64714;SDS011;51144;53.002;6.506;2022-09-09T09:19:34;8.88;;;2.47;;
64714;SDS011;51144;53.002;6.506;2022-09-09T09:22:05;9.27;;;2.08;;
64714;SDS011;51144;53.002;6.506;2022-09-09T09:24:56;9.15;;;1.92;;
64714;SDS011;51144;53.002;6.506;2022-09-09T09:30:40;8.55;;;2.25;;
64714;SDS011;51144;53.002;6.506;2022-09-09T09:33:20;12.05;;;1.48;;
64714;SDS011;51144;53.002;6.506;2022-09-09T09:38:25;10.18;;;2.08;;
64714;SDS011;51144;53.002;6.506;2022-09-09T09:40:56;5.75;;;1.23;;
64714;SDS011;51144;53.002;6.506;2022-09-09T09:43:30;7.13;;;1.17;;
64714;SDS011;51144;53.002;6.506;2022-09-09T09:45:57;6.22;;;1.48;;
64714;SDS011;51144;53.002;6.506;2022-09-09T09:48:24;8.25;;;1.67;;
64714;SDS011;51144;53.002;6.506;2022-09-09T09:50:55;4.25;;;1.17;;
64714;SDS011;51144;53.002;6.506;2022-09-09T09:55:53;9.80;;;1.92;;
64714;SDS011;51144;53.002;6.506;2022-09-09T09:58:25;7.03;;;1.27;;
64714;SDS011;51144;53.002;6.506;2022-09-09T10:00:53;9.38;;;1.30;;
64714;SDS011;51144;53.002;6.506;2022-09-09T10:03:32;7.43;;;1.05;;
64714;SDS011;51144;53.002;6.506;2022-09-09T10:06:02;9.90;;;0.80;;
64714;SDS011;51144;53.002;6.506;2022-09-09T10:08:28;7.45;;;1.00;;
64714;SDS011;51144;53.002;6.506;2022-09-09T10:11:00;4.75;;;1.02;;
64714;SDS011;51144;53.002;6.506;2022-09-09T10:13:44;4.75;;;1.00;;
64714;SDS011;51144;53.002;6.506;2022-09-09T10:18:40;9.05;;;1.50;;
64714;SDS011;51144;53.002;6.506;2022-09-09T10:21:20;6.13;;;1.35;;
64714;SDS011;51144;53.002;6.506;2022-09-09T10:30:12;4.47;;;0.70;;
64714;SDS011;51144;53.002;6.506;2022-09-09T10:32:47;4.60;;;0.80;;
64714;SDS011;51144;53.002;6.506;2022-09-09T10:35:25;5.82;;;0.50;;
64714;SDS011;51144;53.002;6.506;2022-09-09T10:38:16;4.85;;;0.57;;
64714;SDS011;51144;53.002;6.506;2022-09-09T10:57:25;6.10;;;0.63;;
64714;SDS011;51144;53.002;6.506;2022-09-09T11:00:14;7.43;;;0.50;;
64714;SDS011;51144;53.002;6.506;2022-09-09T11:02:42;6.97;;;0.50;;
64714;SDS011;51144;53.002;6.506;2022-09-09T11:10:21;4.90;;;0.95;;
64714;SDS011;51144;53.002;6.506;2022-09-09T11:13:02;6.55;;;0.77;;
64714;SDS011;51144;53.002;6.506;2022-09-09T11:15:33;5.03;;;0.73;;
64714;SDS011;51144;53.002;6.506;2022-09-09T11:18:10;2.30;;;0.38;;
64714;SDS011;51144;53.002;6.506;2022-09-09T11:20:40;2.67;;;0.50;;
64714;SDS011;51144;53.002;6.506;2022-09-09T11:23:12;6.65;;;0.70;;
64714;SDS011;51144;53.002;6.506;2022-09-09T11:26:03;6.82;;;0.90;;
64714;SDS011;51144;53.002;6.506;2022-09-09T11:29:17;5.82;;;0.82;;
64714;SDS011;51144;53.002;6.506;2022-09-09T11:34:16;4.18;;;0.70;;
64714;SDS011;51144;53.002;6.506;2022-09-09T11:36:54;6.30;;;0.63;;
64714;SDS011;51144;53.002;6.506;2022-09-09T11:42:15;6.68;;;0.77;;
64714;SDS011;51144;53.002;6.506;2022-09-09T11:44:43;3.53;;;0.40;;
64714;SDS011;51144;53.002;6.506;2022-09-09T11:47:20;8.13;;;0.95;;
64714;SDS011;51144;53.002;6.506;2022-09-09T11:49:49;6.15;;;0.52;;
64714;SDS011;51144;53.002;6.506;2022-09-09T11:54:50;6.05;;;0.52;;
64714;SDS011;51144;53.002;6.506;2022-09-09T11:57:30;6.03;;;0.75;;
64714;SDS011;51144;53.002;6.506;2022-09-09T11:59:59;5.68;;;1.15;;
64714;SDS011;51144;53.002;6.506;2022-09-09T12:02:26;2.70;;;0.35;;
64714;SDS011;51144;53.002;6.506;2022-09-09T12:05:05;6.50;;;0.63;;
64714;SDS011;51144;53.002;6.506;2022-09-09T12:07:40;6.67;;;0.70;;
64714;SDS011;51144;53.002;6.506;2022-09-09T12:12:45;4.18;;;0.63;;
64714;SDS011;51144;53.002;6.506;2022-09-09T12:17:50;6.32;;;0.68;;
64714;SDS011;51144;53.002;6.506;2022-09-09T12:20:36;3.53;;;0.40;;
64714;SDS011;51144;53.002;6.506;2022-09-09T12:33:43;5.57;;;0.40;;
64714;SDS011;51144;53.002;6.506;2022-09-09T12:36:25;6.72;;;0.30;;
64714;SDS011;51144;53.002;6.506;2022-09-09T12:38:55;6.18;;;0.50;;
64714;SDS011;51144;53.002;6.506;2022-09-09T12:41:25;3.20;;;0.30;;
64714;SDS011;51144;53.002;6.506;2022-09-09T12:44:03;4.60;;;0.50;;
64714;SDS011;51144;53.002;6.506;2022-09-09T12:46:36;7.70;;;0.60;;
64714;SDS011;51144;53.002;6.506;2022-09-09T12:51:51;8.75;;;0.38;;
64714;SDS011;51144;53.002;6.506;2022-09-09T12:54:17;3.83;;;0.50;;
64714;SDS011;51144;53.002;6.506;2022-09-09T12:56:45;5.45;;;0.52;;
64714;SDS011;51144;53.002;6.506;2022-09-09T12:59:25;2.83;;;0.43;;
64714;SDS011;51144;53.002;6.506;2022-09-09T13:02:00;7.47;;;0.35;;
64714;SDS011;51144;53.002;6.506;2022-09-09T13:04:26;4.50;;;0.85;;
64714;SDS011;51144;53.002;6.506;2022-09-09T13:06:52;5.90;;;0.40;;
64714;SDS011;51144;53.002;6.506;2022-09-09T13:09:18;4.72;;;0.50;;
64714;SDS011;51144;53.002;6.506;2022-09-09T13:11:49;5.53;;;0.52;;
64714;SDS011;51144;53.002;6.506;2022-09-09T13:14:55;3.38;;;0.60;;
64714;SDS011;51144;53.002;6.506;2022-09-09T13:17:23;6.13;;;0.93;;
64714;SDS011;51144;53.002;6.506;2022-09-09T13:19:51;11.32;;;0.57;;
64714;SDS011;51144;53.002;6.506;2022-09-09T13:22:31;4.63;;;0.38;;
64714;SDS011;51144;53.002;6.506;2022-09-09T13:27:37;2.75;;;0.60;;
64714;SDS011;51144;53.002;6.506;2022-09-09T13:30:21;1.98;;;0.20;;
64714;SDS011;51144;53.002;6.506;2022-09-09T13:35:57;2.63;;;0.52;;
64714;SDS011;51144;53.002;6.506;2022-09-09T13:38:23;2.47;;;0.30;;
64714;SDS011;51144;53.002;6.506;2022-09-09T13:40:59;6.05;;;0.25;;
64714;SDS011;51144;53.002;6.506;2022-09-09T13:43:27;4.28;;;0.20;;
64714;SDS011;51144;53.002;6.506;2022-09-09T13:45:59;5.38;;;0.52;;
64714;SDS011;51144;53.002;6.506;2022-09-09T13:48:29;4.13;;;0.30;;
64714;SDS011;51144;53.002;6.506;2022-09-09T13:53:23;2.70;;;0.30;;
64714;SDS011;51144;53.002;6.506;2022-09-09T13:55:49;4.03;;;0.30;;
64714;SDS011;51144;53.002;6.506;2022-09-09T13:58:16;3.50;;;0.50;;
64714;SDS011;51144;53.002;6.506;2022-09-09T14:00:46;3.03;;;0.20;;
64714;SDS011;51144;53.002;6.506;2022-09-09T14:03:12;4.93;;;0.30;;
64714;SDS011;51144;53.002;6.506;2022-09-09T14:05:38;2.90;;;0.20;;
64714;SDS011;51144;53.002;6.506;2022-09-09T14:08:04;1.55;;;0.30;;
64714;SDS011;51144;53.002;6.506;2022-09-09T14:10:31;3.60;;;0.10;;
64714;SDS011;51144;53.002;6.506;2022-09-09T14:12:57;2.83;;;0.20;;
64714;SDS011;51144;53.002;6.506;2022-09-09T14:15:23;1.15;;;0.10;;
64714;SDS011;51144;53.002;6.506;2022-09-09T14:17:48;0.70;;;0.10;;
64714;SDS011;51144;53.002;6.506;2022-09-09T14:20:14;0.68;;;0.00;;
64714;SDS011;51144;53.002;6.506;2022-09-09T14:22:40;2.53;;;0.30;;
64714;SDS011;51144;53.002;6.506;2022-09-09T14:25:06;1.52;;;0.10;;
64714;SDS011;51144;53.002;6.506;2022-09-09T14:27:32;1.63;;;0.20;;
64714;SDS011;51144;53.002;6.506;2022-09-09T14:29:58;2.83;;;0.30;;
64714;SDS011;51144;53.002;6.506;2022-09-09T14:32:25;1.50;;;0.10;;
64714;SDS011;51144;53.002;6.506;2022-09-09T14:34:51;2.13;;;0.20;;
64714;SDS011;51144;53.002;6.506;2022-09-09T14:37:17;2.65;;;0.50;;
64714;SDS011;51144;53.002;6.506;2022-09-09T14:39:43;2.72;;;0.20;;
64714;SDS011;51144;53.002;6.506;2022-09-09T14:42:12;2.92;;;0.40;;
64714;SDS011;51144;53.002;6.506;2022-09-09T14:44:38;3.67;;;0.10;;
64714;SDS011;51144;53.002;6.506;2022-09-09T14:47:06;1.13;;;0.10;;
64714;SDS011;51144;53.002;6.506;2022-09-09T14:49:33;1.38;;;0.10;;
64714;SDS011;51144;53.002;6.506;2022-09-09T14:52:02;5.00;;;0.20;;
64714;SDS011;51144;53.002;6.506;2022-09-09T14:54:29;3.05;;;0.30;;
64714;SDS011;51144;53.002;6.506;2022-09-09T14:56:56;1.38;;;0.22;;
64714;SDS011;51144;53.002;6.506;2022-09-09T14:59:22;2.35;;;0.30;;
64714;SDS011;51144;53.002;6.506;2022-09-09T15:01:48;1.63;;;0.10;;
64714;SDS011;51144;53.002;6.506;2022-09-09T15:04:13;1.10;;;0.10;;
64714;SDS011;51144;53.002;6.506;2022-09-09T15:06:40;2.42;;;0.10;;
64714;SDS011;51144;53.002;6.506;2022-09-09T15:09:07;1.15;;;0.20;;
64714;SDS011;51144;53.002;6.506;2022-09-09T15:11:34;0.93;;;0.17;;
64714;SDS011;51144;53.002;6.506;2022-09-09T15:14:05;0.95;;;0.10;;
64714;SDS011;51144;53.002;6.506;2022-09-09T15:16:32;1.27;;;0.22;;
64714;SDS011;51144;53.002;6.506;2022-09-09T15:18:58;0.45;;;0.10;;
64714;SDS011;51144;53.002;6.506;2022-09-09T15:21:26;2.90;;;0.35;;
64714;SDS011;51144;53.002;6.506;2022-09-09T15:23:54;1.42;;;0.30;;
64714;SDS011;51144;53.002;6.506;2022-09-09T15:26:22;3.13;;;0.20;;
64714;SDS011;51144;53.002;6.506;2022-09-09T15:28:48;2.22;;;0.10;;
64714;SDS011;51144;53.002;6.506;2022-09-09T15:31:22;1.90;;;0.10;;
64714;SDS011;51144;53.002;6.506;2022-09-09T15:36:22;2.22;;;0.35;;
64714;SDS011;51144;53.002;6.506;2022-09-09T15:38:50;3.13;;;0.30;;
64714;SDS011;51144;53.002;6.506;2022-09-09T15:41:17;1.88;;;0.10;;
64714;SDS011;51144;53.002;6.506;2022-09-09T15:43:45;1.60;;;0.20;;
64714;SDS011;51144;53.002;6.506;2022-09-09T15:49:04;2.50;;;0.30;;
64714;SDS011;51144;53.002;6.506;2022-09-09T15:51:57;3.03;;;0.20;;
64714;SDS011;51144;53.002;6.506;2022-09-09T15:54:27;3.38;;;0.20;;
64714;SDS011;51144;53.002;6.506;2022-09-09T15:56:56;2.47;;;0.20;;
64714;SDS011;51144;53.002;6.506;2022-09-09T15:59:23;2.40;;;0.20;;
64714;SDS011;51144;53.002;6.506;2022-09-09T16:01:50;3.72;;;0.20;;
64714;SDS011;51144;53.002;6.506;2022-09-09T16:04:19;2.65;;;0.22;;
64714;SDS011;51144;53.002;6.506;2022-09-09T16:06:50;3.53;;;0.40;;
64714;SDS011;51144;53.002;6.506;2022-09-09T16:09:20;4.25;;;0.13;;
64714;SDS011;51144;53.002;6.506;2022-09-09T16:11:46;1.65;;;0.30;;
64714;SDS011;51144;53.002;6.506;2022-09-09T16:14:13;2.25;;;0.13;;
64714;SDS011;51144;53.002;6.506;2022-09-09T16:16:40;1.95;;;0.20;;
64714;SDS011;51144;53.002;6.506;2022-09-09T16:19:08;1.85;;;0.20;;
64714;SDS011;51144;53.002;6.506;2022-09-09T16:21:37;0.90;;;0.20;;
64714;SDS011;51144;53.002;6.506;2022-09-09T16:24:08;1.48;;;0.28;;
64714;SDS011;51144;53.002;6.506;2022-09-09T16:26:36;3.15;;;0.30;;
64714;SDS011;51144;53.002;6.506;2022-09-09T16:29:04;2.45;;;0.40;;
64714;SDS011;51144;53.002;6.506;2022-09-09T16:31:30;3.50;;;0.30;;
64714;SDS011;51144;53.002;6.506;2022-09-09T16:33:59;2.70;;;0.20;;
64714;SDS011;51144;53.002;6.506;2022-09-09T16:36:26;3.58;;;0.20;;
64714;SDS011;51144;53.002;6.506;2022-09-09T16:38:54;1.60;;;0.20;;
64714;SDS011;51144;53.002;6.506;2022-09-09T16:41:22;1.95;;;0.20;;
64714;SDS011;51144;53.002;6.506;2022-09-09T16:43:55;5.03;;;0.68;;
64714;SDS011;51144;53.002;6.506;2022-09-09T16:46:23;1.75;;;0.30;;
64714;SDS011;51144;53.002;6.506;2022-09-09T16:48:49;3.67;;;0.52;;
64714;SDS011;51144;53.002;6.506;2022-09-09T16:53:49;2.40;;;0.20;;
64714;SDS011;51144;53.002;6.506;2022-09-09T16:56:17;2.42;;;0.30;;
64714;SDS011;51144;53.002;6.506;2022-09-09T16:58:55;3.97;;;0.20;;
64714;SDS011;51144;53.002;6.506;2022-09-09T17:01:26;0.80;;;0.20;;
64714;SDS011;51144;53.002;6.506;2022-09-09T17:03:54;3.03;;;0.40;;
64714;SDS011;51144;53.002;6.506;2022-09-09T17:06:26;4.05;;;0.50;;
64714;SDS011;51144;53.002;6.506;2022-09-09T17:08:59;3.17;;;0.20;;
64714;SDS011;51144;53.002;6.506;2022-09-09T17:11:26;2.03;;;0.40;;
64714;SDS011;51144;53.002;6.506;2022-09-09T17:13:53;4.45;;;0.32;;
64714;SDS011;51144;53.002;6.506;2022-09-09T17:16:20;3.90;;;0.73;;
64714;SDS011;51144;53.002;6.506;2022-09-09T17:18:48;2.22;;;0.22;;
64714;SDS011;51144;53.002;6.506;2022-09-09T17:21:16;2.95;;;0.52;;